sensor_id;sensor_type;location;lat;lon;timestamp;pressure;altitude;pressure_sealevel;temperature;humidity
10706;BME280;5404;42.656;23.336;2023-03-29T00:00:05;95196.00;;;0.13;100.00
10706;BME280;5404;42.656;23.336;2023-03-29T00:02:35;95105.56;;;-0.37;100.00
10706;BME280;5404;42.656;23.336;2023-03-29T00:05:00;95182.22;;;0.18;100.00
10706;BME280;5404;42.656;23.336;2023-03-29T00:07:26;95180.06;;;0.15;100.00
10706;BME280;5404;42.656;23.336;2023-03-29T00:09:53;95174.50;;;0.23;100.00
10706;BME280;5404;42.656;23.336;2023-03-29T00:12:19;95176.97;;;0.18;100.00
10706;BME280;5404;42.656;23.336;2023-03-29T00:14:46;95178.59;;;0.19;100.00
10706;BME280;5404;42.656;23.336;2023-03-29T00:17:13;95180.06;;;0.15;100.00
10706;BME280;5404;42.656;23.336;2023-03-29T00:19:38;95175.34;;;0.05;100.00
10706;BME280;5404;42.656;23.336;2023-03-29T00:22:03;95192.66;;;0.06;100.00
10706;BME280;5404;42.656;23.336;2023-03-29T00:24:31;95186.19;;;0.09;100.00
10706;BME280;5404;42.656;23.336;2023-03-29T00:26:57;95180.72;;;0.10;100.00
10706;BME280;5404;42.656;23.336;2023-03-29T00:29:22;95174.91;;;0.08;100.00
10706;BME280;5404;42.656;23.336;2023-03-29T00:31:47;95178.53;;;0.07;100.00
10706;BME280;5404;42.656;23.336;2023-03-29T00:34:26;95180.59;;;0.05;100.00
10706;BME280;5404;42.656;23.336;2023-03-29T00:36:56;95174.19;;;0.01;100.00
10706;BME280;5404;42.656;23.336;2023-03-29T00:39:23;95171.56;;;0.01;100.00
10706;BME280;5404;42.656;23.336;2023-03-29T00:41:48;95174.41;;;-0.01;100.00
10706;BME280;5404;42.656;23.336;2023-03-29T00:46:59;95181.22;;;0.00;100.00
10706;BME280;5404;42.656;23.336;2023-03-29T00:49:24;95172.78;;;-0.02;100.00
10706;BME280;5404;42.656;23.336;2023-03-29T00:51:50;95179.06;;;-0.03;100.00
10706;BME280;5404;42.656;23.336;2023-03-29T00:54:16;95175.63;;;-0.03;100.00
10706;BME280;5404;42.656;23.336;2023-03-29T00:56:43;95178.03;;;-0.02;100.00
10706;BME280;5404;42.656;23.336;2023-03-29T00:59:17;95177.81;;;0.00;100.00
10706;BME280;5404;42.656;23.336;2023-03-29T01:01:45;95180.00;;;0.03;100.00
10706;BME280;5404;42.656;23.336;2023-03-29T01:06:48;95173.81;;;-0.03;100.00
10706;BME280;5404;42.656;23.336;2023-03-29T01:09:17;95180.63;;;-0.02;100.00
10706;BME280;5404;42.656;23.336;2023-03-29T01:11:46;95192.81;;;-0.07;100.00
10706;BME280;5404;42.656;23.336;2023-03-29T01:14:24;95185.97;;;-0.08;100.00
10706;BME280;5404;42.656;23.336;2023-03-29T01:16:51;95185.59;;;-0.12;100.00
10706;BME280;5404;42.656;23.336;2023-03-29T01:19:18;95194.41;;;-0.06;100.00
10706;BME280;5404;42.656;23.336;2023-03-29T01:21:49;95196.22;;;-0.07;100.00
10706;BME280;5404;42.656;23.336;2023-03-29T01:24:23;95192.59;;;-0.06;100.00
10706;BME280;5404;42.656;23.336;2023-03-29T01:29:38;95197.38;;;-0.03;100.00
10706;BME280;5404;42.656;23.336;2023-03-29T01:32:07;95202.47;;;-0.08;100.00
10706;BME280;5404;42.656;23.336;2023-03-29T01:34:47;95194.19;;;-0.05;100.00
10706;BME280;5404;42.656;23.336;2023-03-29T01:37:22;95195.00;;;-0.04;100.00
10706;BME280;5404;42.656;23.336;2023-03-29T01:39:51;95186.09;;;-0.03;100.00
10706;BME280;5404;42.656;23.336;2023-03-29T01:52:35;95175.72;;;-0.10;100.00
10706;BME280;5404;42.656;23.336;2023-03-29T01:55:07;95174.91;;;-0.10;100.00
10706;BME280;5404;42.656;23.336;2023-03-29T01:57:35;95175.13;;;-0.12;100.00
10706;BME280;5404;42.656;23.336;2023-03-29T02:00:02;95178.31;;;-0.10;100.00
10706;BME280;5404;42.656;23.336;2023-03-29T02:02:33;95186.84;;;-0.14;100.00
10706;BME280;5404;42.656;23.336;2023-03-29T02:04:59;95191.72;;;-0.18;100.00
10706;BME280;5404;42.656;23.336;2023-03-29T02:07:25;95186.84;;;-0.14;100.00
10706;BME280;5404;42.656;23.336;2023-03-29T02:09:54;95171.72;;;-0.12;100.00
10706;BME280;5404;42.656;23.336;2023-03-29T02:12:21;95151.78;;;-0.13;100.00
10706;BME280;5404;42.656;23.336;2023-03-29T02:14:46;95182.97;;;-0.12;100.00
10706;BME280;5404;42.656;23.336;2023-03-29T02:19:44;95196.06;;;-0.12;100.00
10706;BME280;5404;42.656;23.336;2023-03-29T02:22:14;95186.03;;;-0.15;100.00
10706;BME280;5404;42.656;23.336;2023-03-29T02:24:41;95195.50;;;-0.14;100.00
10706;BME280;5404;42.656;23.336;2023-03-29T02:27:09;95190.47;;;-0.15;100.00
10706;BME280;5404;42.656;23.336;2023-03-29T02:29:34;95206.19;;;-0.15;100.00
10706;BME280;5404;42.656;23.336;2023-03-29T02:32:11;95196.75;;;-0.16;100.00
10706;BME280;5404;42.656;23.336;2023-03-29T02:37:10;95203.78;;;-0.17;100.00
10706;BME280;5404;42.656;23.336;2023-03-29T02:39:37;95204.81;;;-0.18;100.00
10706;BME280;5404;42.656;23.336;2023-03-29T02:42:03;95201.16;;;-0.17;100.00
10706;BME280;5404;42.656;23.336;2023-03-29T02:44:30;95207.22;;;-0.16;100.00
10706;BME280;5404;42.656;23.336;2023-03-29T02:46:57;95203.78;;;-0.17;100.00
10706;BME280;5404;42.656;23.336;2023-03-29T02:49:23;95212.00;;;-0.13;100.00
10706;BME280;5404;42.656;23.336;2023-03-29T02:51:50;95214.84;;;-0.15;100.00
10706;BME280;5404;42.656;23.336;2023-03-29T02:54:18;95217.25;;;-0.13;100.00
10706;BME280;5404;42.656;23.336;2023-03-29T02:56:48;95224.28;;;-0.14;100.00
10706;BME280;5404;42.656;23.336;2023-03-29T02:59:15;95225.09;;;-0.13;100.00
10706;BME280;5404;42.656;23.336;2023-03-29T03:01:44;95216.88;;;-0.17;100.00
10706;BME280;5404;42.656;23.336;2023-03-29T03:04:09;95226.34;;;-0.16;100.00
10706;BME280;5404;42.656;23.336;2023-03-29T03:06:35;95227.56;;;-0.18;100.00
10706;BME280;5404;42.656;23.336;2023-03-29T03:09:01;95241.47;;;-0.18;100.00
10706;BME280;5404;42.656;23.336;2023-03-29T03:11:28;95234.25;;;-0.22;100.00
10706;BME280;5404;42.656;23.336;2023-03-29T03:13:53;95232.28;;;-0.27;100.00
10706;BME280;5404;42.656;23.336;2023-03-29T03:16:19;95221.59;;;-0.25;100.00
10706;BME280;5404;42.656;23.336;2023-03-29T03:18:45;95230.72;;;-0.28;100.00
10706;BME280;5404;42.656;23.336;2023-03-29T03:21:12;95244.56;;;-0.27;100.00
10706;BME280;5404;42.656;23.336;2023-03-29T03:23:37;95248.22;;;-0.28;100.00
10706;BME280;5404;42.656;23.336;2023-03-29T03:26:03;95236.94;;;-0.29;100.00
10706;BME280;5404;42.656;23.336;2023-03-29T03:28:29;95240.59;;;-0.30;100.00
10706;BME280;5404;42.656;23.336;2023-03-29T03:30:54;95214.63;;;-0.31;100.00
10706;BME280;5404;42.656;23.336;2023-03-29T03:33:19;95248.22;;;-0.28;100.00
10706;BME280;5404;42.656;23.336;2023-03-29T03:35:45;95238.56;;;-0.28;100.00
10706;BME280;5404;42.656;23.336;2023-03-29T03:38:11;95260.50;;;-0.29;100.00
10706;BME280;5404;42.656;23.336;2023-03-29T03:40:37;95239.34;;;-0.27;100.00
10706;BME280;5404;42.656;23.336;2023-03-29T03:43:02;95260.28;;;-0.27;100.00
10706;BME280;5404;42.656;23.336;2023-03-29T03:45:28;95252.22;;;-0.26;100.00
10706;BME280;5404;42.656;23.336;2023-03-29T03:47:53;95265.31;;;-0.26;100.00
10706;BME280;5404;42.656;23.336;2023-03-29T03:50:18;95257.25;;;-0.24;100.00
10706;BME280;5404;42.656;23.336;2023-03-29T03:52:44;95261.25;;;-0.22;100.00
10706;BME280;5404;42.656;23.336;2023-03-29T03:55:09;95270.13;;;-0.23;100.00
10706;BME280;5404;42.656;23.336;2023-03-29T03:57:35;95262.50;;;-0.24;100.00
10706;BME280;5404;42.656;23.336;2023-03-29T04:00:04;95281.59;;;-0.24;100.00
10706;BME280;5404;42.656;23.336;2023-03-29T04:02:46;95261.69;;;-0.25;100.00
10706;BME280;5404;42.656;23.336;2023-03-29T04:05:12;95273.97;;;-0.25;100.00
10706;BME280;5404;42.656;23.336;2023-03-29T04:07:38;95278.19;;;-0.24;100.00
10706;BME280;5404;42.656;23.336;2023-03-29T04:10:04;95276.72;;;-0.20;100.00
10706;BME280;5404;42.656;23.336;2023-03-29T04:12:30;95277.97;;;-0.23;100.00
10706;BME280;5404;42.656;23.336;2023-03-29T04:14:56;95280.59;;;-0.23;100.00
10706;BME280;5404;42.656;23.336;2023-03-29T04:17:21;95290.69;;;-0.26;100.00
10706;BME280;5404;42.656;23.336;2023-03-29T04:19:46;95282.63;;;-0.25;100.00
10706;BME280;5404;42.656;23.336;2023-03-29T04:22:12;95276.94;;;-0.22;100.00
10706;BME280;5404;42.656;23.336;2023-03-29T04:24:37;95282.78;;;-0.20;100.00
10706;BME280;5404;42.656;23.336;2023-03-29T04:27:02;95281.38;;;-0.22;100.00
10706;BME280;5404;42.656;23.336;2023-03-29T04:29:27;95281.38;;;-0.22;100.00
10706;BME280;5404;42.656;23.336;2023-03-29T04:31:53;95301.31;;;-0.21;100.00
10706;BME280;5404;42.656;23.336;2023-03-29T04:34:18;95289.81;;;-0.20;100.00
10706;BME280;5404;42.656;23.336;2023-03-29T04:36:44;95294.63;;;-0.17;100.00
10706;BME280;5404;42.656;23.336;2023-03-29T04:39:14;95304.91;;;-0.16;100.00
10706;BME280;5404;42.656;23.336;2023-03-29T04:41:39;95303.22;;;-0.10;100.00
10706;BME280;5404;42.656;23.336;2023-03-29T04:44:05;95297.75;;;-0.09;100.00
10706;BME280;5404;42.656;23.336;2023-03-29T04:46:30;95305.44;;;-0.07;100.00
10706;BME280;5404;42.656;23.336;2023-03-29T04:48:56;95308.81;;;-0.07;100.00
10706;BME280;5404;42.656;23.336;2023-03-29T04:51:21;95287.09;;;-0.07;100.00
10706;BME280;5404;42.656;23.336;2023-03-29T04:53:49;95299.97;;;-0.06;100.00
10706;BME280;5404;42.656;23.336;2023-03-29T04:56:16;95306.50;;;0.03;100.00
10706;BME280;5404;42.656;23.336;2023-03-29T04:58:41;95314.22;;;-0.02;100.00
10706;BME280;5404;42.656;23.336;2023-03-29T05:01:09;95314.22;;;-0.02;100.00
10706;BME280;5404;42.656;23.336;2023-03-29T05:03:34;95317.44;;;0.00;100.00
10706;BME280;5404;42.656;23.336;2023-03-29T05:06:01;95316.13;;;0.10;100.00
10706;BME280;5404;42.656;23.336;2023-03-29T05:08:27;95323.19;;;0.09;100.00
10706;BME280;5404;42.656;23.336;2023-03-29T05:10:52;95302.59;;;0.13;100.00
10706;BME280;5404;42.656;23.336;2023-03-29T05:13:17;95327.34;;;0.17;100.00
10706;BME280;5404;42.656;23.336;2023-03-29T05:15:42;95333.75;;;0.21;100.00
10706;BME280;5404;42.656;23.336;2023-03-29T05:18:08;95330.13;;;0.22;100.00
10706;BME280;5404;42.656;23.336;2023-03-29T05:20:33;95340.53;;;0.28;100.00
10706;BME280;5404;42.656;23.336;2023-03-29T05:22:58;95344.47;;;0.37;100.00
10706;BME280;5404;42.656;23.336;2023-03-29T05:25:24;95354.59;;;0.34;100.00
10706;BME280;5404;42.656;23.336;2023-03-29T05:27:50;95346.94;;;0.32;100.00
10706;BME280;5404;42.656;23.336;2023-03-29T05:30:16;95359.44;;;0.30;100.00
10706;BME280;5404;42.656;23.336;2023-03-29T05:32:41;95363.47;;;0.33;100.00
10706;BME280;5404;42.656;23.336;2023-03-29T05:35:07;95362.16;;;0.24;100.00
10706;BME280;5404;42.656;23.336;2023-03-29T05:37:32;95359.22;;;0.32;100.00
10706;BME280;5404;42.656;23.336;2023-03-29T05:39:58;95357.34;;;0.39;100.00
10706;BME280;5404;42.656;23.336;2023-03-29T05:42:23;95361.28;;;0.48;100.00
10706;BME280;5404;42.656;23.336;2023-03-29T05:44:49;95358.59;;;0.54;100.00
10706;BME280;5404;42.656;23.336;2023-03-29T05:47:14;95359.75;;;0.76;100.00
10706;BME280;5404;42.656;23.336;2023-03-29T05:49:39;95363.63;;;1.03;100.00
10706;BME280;5404;42.656;23.336;2023-03-29T05:52:05;95377.44;;;1.29;100.00
10706;BME280;5404;42.656;23.336;2023-03-29T05:54:30;95370.28;;;1.36;100.00
10706;BME280;5404;42.656;23.336;2023-03-29T05:56:55;95372.03;;;1.53;100.00
10706;BME280;5404;42.656;23.336;2023-03-29T05:59:21;95370.81;;;1.67;100.00
10706;BME280;5404;42.656;23.336;2023-03-29T06:01:47;95279.50;;;1.16;100.00
10706;BME280;5404;42.656;23.336;2023-03-29T06:04:13;95374.81;;;1.70;100.00
10706;BME280;5404;42.656;23.336;2023-03-29T06:06:39;95377.13;;;1.78;100.00
10706;BME280;5404;42.656;23.336;2023-03-29T06:09:05;95370.75;;;1.85;100.00
10706;BME280;5404;42.656;23.336;2023-03-29T06:11:31;95379.28;;;1.81;100.00
10706;BME280;5404;42.656;23.336;2023-03-29T06:13:57;95389.13;;;1.85;100.00
10706;BME280;5404;42.656;23.336;2023-03-29T06:16:22;95304.31;;;1.44;100.00
10706;BME280;5404;42.656;23.336;2023-03-29T06:18:47;95379.44;;;1.97;100.00
10706;BME280;5404;42.656;23.336;2023-03-29T06:21:14;95386.75;;;2.07;100.00
10706;BME280;5404;42.656;23.336;2023-03-29T06:23:39;95392.13;;;2.12;100.00
10706;BME280;5404;42.656;23.336;2023-03-29T06:26:05;95376.94;;;2.25;97.41
10706;BME280;5404;42.656;23.336;2023-03-29T06:28:31;95382.53;;;2.29;96.01
10706;BME280;5404;42.656;23.336;2023-03-29T06:30:56;95392.69;;;2.25;96.26
10706;BME280;5404;42.656;23.336;2023-03-29T06:33:27;95391.34;;;2.34;94.56
10706;BME280;5404;42.656;23.336;2023-03-29T06:35:53;95396.25;;;2.42;93.35
10706;BME280;5404;42.656;23.336;2023-03-29T06:38:18;95404.25;;;2.36;93.33
10706;BME280;5404;42.656;23.336;2023-03-29T06:40:45;95398.09;;;2.42;94.50
10706;BME280;5404;42.656;23.336;2023-03-29T06:43:11;95405.53;;;2.33;93.13
10706;BME280;5404;42.656;23.336;2023-03-29T06:45:38;95415.59;;;2.25;91.52
10706;BME280;5404;42.656;23.336;2023-03-29T06:48:04;95421.84;;;2.01;90.93
10706;BME280;5404;42.656;23.336;2023-03-29T06:50:30;95423.91;;;1.69;89.84
10706;BME280;5404;42.656;23.336;2023-03-29T06:52:55;95416.84;;;1.70;90.91
10706;BME280;5404;42.656;23.336;2023-03-29T06:55:21;95416.63;;;1.71;90.43
10706;BME280;5404;42.656;23.336;2023-03-29T06:57:47;95415.91;;;1.64;91.51
10706;BME280;5404;42.656;23.336;2023-03-29T07:00:13;95413.00;;;1.84;92.30
10706;BME280;5404;42.656;23.336;2023-03-29T07:03:02;95402.63;;;2.12;90.25
10706;BME280;5404;42.656;23.336;2023-03-29T07:05:28;95407.13;;;2.34;89.58
10706;BME280;5404;42.656;23.336;2023-03-29T07:07:54;95409.31;;;2.49;86.60
10706;BME280;5404;42.656;23.336;2023-03-29T07:10:20;95394.16;;;2.79;86.01
10706;BME280;5404;42.656;23.336;2023-03-29T07:12:50;95394.47;;;3.06;84.23
10706;BME280;5404;42.656;23.336;2023-03-29T07:15:16;95407.78;;;3.27;81.88
10706;BME280;5404;42.656;23.336;2023-03-29T07:17:41;95400.13;;;3.26;79.55
10706;BME280;5404;42.656;23.336;2023-03-29T07:20:06;95405.41;;;3.14;79.18
10706;BME280;5404;42.656;23.336;2023-03-29T07:22:43;95393.13;;;3.31;76.07
10706;BME280;5404;42.656;23.336;2023-03-29T07:25:09;95417.28;;;3.28;75.24
10706;BME280;5404;42.656;23.336;2023-03-29T07:27:36;95403.22;;;3.23;73.69
10706;BME280;5404;42.656;23.336;2023-03-29T07:30:04;95406.72;;;3.40;72.72
10706;BME280;5404;42.656;23.336;2023-03-29T07:32:33;95413.38;;;2.80;74.19
10706;BME280;5404;42.656;23.336;2023-03-29T07:35:00;95411.63;;;2.97;73.91
10706;BME280;5404;42.656;23.336;2023-03-29T07:37:25;95402.41;;;3.22;73.36
10706;BME280;5404;42.656;23.336;2023-03-29T07:39:50;95390.63;;;3.25;72.90
10706;BME280;5404;42.656;23.336;2023-03-29T07:42:16;95409.78;;;3.09;72.29
10706;BME280;5404;42.656;23.336;2023-03-29T07:44:41;95388.81;;;3.14;71.74
10706;BME280;5404;42.656;23.336;2023-03-29T07:47:07;95390.25;;;3.33;72.12
10706;BME280;5404;42.656;23.336;2023-03-29T07:49:32;95396.00;;;3.30;71.74
10706;BME280;5404;42.656;23.336;2023-03-29T07:51:57;95391.44;;;3.14;71.14
10706;BME280;5404;42.656;23.336;2023-03-29T07:54:24;95387.66;;;2.70;70.68
10706;BME280;5404;42.656;23.336;2023-03-29T07:56:49;95380.31;;;2.72;73.30
10706;BME280;5404;42.656;23.336;2023-03-29T07:59:15;95372.41;;;2.95;73.95
10706;BME280;5404;42.656;23.336;2023-03-29T08:01:41;95365.50;;;3.06;71.42
10706;BME280;5404;42.656;23.336;2023-03-29T08:04:07;95361.19;;;3.28;71.65
10706;BME280;5404;42.656;23.336;2023-03-29T08:06:32;95354.22;;;3.50;69.57
10706;BME280;5404;42.656;23.336;2023-03-29T08:08:58;95376.19;;;3.55;68.59
10706;BME280;5404;42.656;23.336;2023-03-29T08:11:25;95354.88;;;3.57;66.74
10706;BME280;5404;42.656;23.336;2023-03-29T08:13:52;95359.72;;;3.48;64.79
10706;BME280;5404;42.656;23.336;2023-03-29T08:16:17;95359.41;;;3.62;64.71
10706;BME280;5404;42.656;23.336;2023-03-29T08:18:42;95348.03;;;3.73;64.82
10706;BME280;5404;42.656;23.336;2023-03-29T08:21:09;95349.94;;;3.77;63.15
10706;BME280;5404;42.656;23.336;2023-03-29T08:23:34;95342.44;;;3.69;61.04
10706;BME280;5404;42.656;23.336;2023-03-29T08:26:00;95349.38;;;3.75;61.72
10706;BME280;5404;42.656;23.336;2023-03-29T08:28:25;95355.53;;;3.81;62.18
10706;BME280;5404;42.656;23.336;2023-03-29T08:30:51;95359.53;;;3.83;61.98
10706;BME280;5404;42.656;23.336;2023-03-29T08:33:17;95363.84;;;3.89;60.26
10706;BME280;5404;42.656;23.336;2023-03-29T08:35:43;95333.78;;;3.57;59.33
10706;BME280;5404;42.656;23.336;2023-03-29T08:38:08;95345.53;;;3.66;59.93
10706;BME280;5404;42.656;23.336;2023-03-29T08:40:34;95355.22;;;3.94;62.27
10706;BME280;5404;42.656;23.336;2023-03-29T08:45:47;95345.22;;;4.12;56.50
10706;BME280;5404;42.656;23.336;2023-03-29T08:48:28;95340.34;;;4.21;55.08
10706;BME280;5404;42.656;23.336;2023-03-29T08:50:58;95353.94;;;4.29;55.40
10706;BME280;5404;42.656;23.336;2023-03-29T08:53:38;95340.84;;;4.18;53.35
10706;BME280;5404;42.656;23.336;2023-03-29T08:56:07;95355.81;;;4.34;51.91
10706;BME280;5404;42.656;23.336;2023-03-29T08:58:36;95345.72;;;4.47;51.12
10706;BME280;5404;42.656;23.336;2023-03-29T09:01:05;95347.59;;;4.68;51.55
10706;BME280;5404;42.656;23.336;2023-03-29T09:03:34;95343.69;;;4.93;49.94
10706;BME280;5404;42.656;23.336;2023-03-29T09:06:05;95342.78;;;5.04;49.26
10706;BME280;5404;42.656;23.336;2023-03-29T09:08:31;95334.41;;;5.12;49.74
10706;BME280;5404;42.656;23.336;2023-03-29T09:11:16;95337.44;;;5.47;49.72
10706;BME280;5404;42.656;23.336;2023-03-29T09:16:29;95327.50;;;7.21;46.26
10706;BME280;5404;42.656;23.336;2023-03-29T09:21:40;95325.44;;;10.29;37.66
10706;BME280;5404;42.656;23.336;2023-03-29T09:26:59;95298.66;;;11.57;33.73
10706;BME280;5404;42.656;23.336;2023-03-29T09:32:21;95299.75;;;12.44;33.72
10706;BME280;5404;42.656;23.336;2023-03-29T09:34:57;95309.44;;;12.86;32.02
10706;BME280;5404;42.656;23.336;2023-03-29T09:37:30;95299.97;;;13.07;31.46
10706;BME280;5404;42.656;23.336;2023-03-29T09:40:00;95307.31;;;13.15;32.12
10706;BME280;5404;42.656;23.336;2023-03-29T09:42:27;95297.34;;;12.75;31.95
10706;BME280;5404;42.656;23.336;2023-03-29T09:44:54;95278.03;;;12.91;30.70
10706;BME280;5404;42.656;23.336;2023-03-29T09:47:34;95284.00;;;13.02;31.14
10706;BME280;5404;42.656;23.336;2023-03-29T09:50:06;95293.19;;;13.50;30.78
10706;BME280;5404;42.656;23.336;2023-03-29T09:52:35;95294.50;;;11.89;31.43
10706;BME280;5404;42.656;23.336;2023-03-29T09:55:00;95311.94;;;10.49;31.63
10706;BME280;5404;42.656;23.336;2023-03-29T09:57:27;95306.16;;;10.95;30.37
10706;BME280;5404;42.656;23.336;2023-03-29T09:59:54;95316.66;;;10.86;29.45
10706;BME280;5404;42.656;23.336;2023-03-29T10:02:21;95308.59;;;11.33;29.98
10706;BME280;5404;42.656;23.336;2023-03-29T10:04:53;95299.78;;;12.12;28.54
10706;BME280;5404;42.656;23.336;2023-03-29T10:07:43;95300.66;;;11.28;28.31
10706;BME280;5404;42.656;23.336;2023-03-29T10:10:17;95301.91;;;12.29;28.48
10706;BME280;5404;42.656;23.336;2023-03-29T10:12:46;95296.50;;;12.47;28.90
10706;BME280;5404;42.656;23.336;2023-03-29T10:15:14;95297.44;;;12.24;27.31
10706;BME280;5404;42.656;23.336;2023-03-29T10:17:41;95291.09;;;12.20;28.33
10706;BME280;5404;42.656;23.336;2023-03-29T10:20:11;95296.16;;;11.47;28.36
10706;BME280;5404;42.656;23.336;2023-03-29T10:22:37;95286.63;;;11.41;28.06
10706;BME280;5404;42.656;23.336;2023-03-29T10:25:11;95287.84;;;10.36;29.18
10706;BME280;5404;42.656;23.336;2023-03-29T10:27:39;95286.69;;;10.71;29.16
10706;BME280;5404;42.656;23.336;2023-03-29T10:30:17;95276.53;;;10.96;28.67
10706;BME280;5404;42.656;23.336;2023-03-29T10:32:44;95298.63;;;10.78;28.05
10706;BME280;5404;42.656;23.336;2023-03-29T10:35:18;95288.00;;;11.57;27.86
10706;BME280;5404;42.656;23.336;2023-03-29T10:37:50;95278.34;;;10.77;28.34
10706;BME280;5404;42.656;23.336;2023-03-29T10:42:46;95267.00;;;11.14;29.12
10706;BME280;5404;42.656;23.336;2023-03-29T10:45:17;95287.59;;;11.50;28.88
10706;BME280;5404;42.656;23.336;2023-03-29T10:47:43;95273.38;;;11.92;28.03
10706;BME280;5404;42.656;23.336;2023-03-29T10:50:10;95284.84;;;11.93;28.07
10706;BME280;5404;42.656;23.336;2023-03-29T10:52:39;95260.75;;;11.60;26.46
10706;BME280;5404;42.656;23.336;2023-03-29T10:55:07;95268.38;;;11.30;26.89
10706;BME280;5404;42.656;23.336;2023-03-29T10:57:43;95273.66;;;11.53;28.02
10706;BME280;5404;42.656;23.336;2023-03-29T11:02:52;95254.84;;;11.82;27.84
10706;BME280;5404;42.656;23.336;2023-03-29T11:05:26;95268.75;;;11.42;27.01
10706;BME280;5404;42.656;23.336;2023-03-29T11:08:05;95258.28;;;11.45;26.60
10706;BME280;5404;42.656;23.336;2023-03-29T11:21:05;95236.72;;;10.81;28.53
10706;BME280;5404;42.656;23.336;2023-03-29T11:28:40;95233.38;;;11.13;28.98
10706;BME280;5404;42.656;23.336;2023-03-29T11:36:43;95246.78;;;10.66;28.58
10706;BME280;5404;42.656;23.336;2023-03-29T11:39:18;95241.81;;;10.30;28.66
10706;BME280;5404;42.656;23.336;2023-03-29T11:41:48;95237.97;;;10.41;29.01
10706;BME280;5404;42.656;23.336;2023-03-29T11:44:21;95238.19;;;10.21;29.13
10706;BME280;5404;42.656;23.336;2023-03-29T11:46:52;95244.59;;;10.44;29.21
10706;BME280;5404;42.656;23.336;2023-03-29T11:49:29;95241.81;;;10.30;30.26
10706;BME280;5404;42.656;23.336;2023-03-29T11:56:49;95205.38;;;10.73;28.62
10706;BME280;5404;42.656;23.336;2023-03-29T12:01:49;95231.34;;;10.10;30.12
10706;BME280;5404;42.656;23.336;2023-03-29T12:04:18;95221.41;;;9.87;30.13
10706;BME280;5404;42.656;23.336;2023-03-29T12:09:27;95224.34;;;9.52;30.80
10706;BME280;5404;42.656;23.336;2023-03-29T12:11:58;95208.06;;;9.25;31.27
10706;BME280;5404;42.656;23.336;2023-03-29T12:14:51;95232.72;;;9.35;31.38
10706;BME280;5404;42.656;23.336;2023-03-29T12:17:17;95211.59;;;9.10;30.37
10706;BME280;5404;42.656;23.336;2023-03-29T12:20:27;95221.22;;;8.96;28.98
10706;BME280;5404;42.656;23.336;2023-03-29T12:22:33;95228.06;;;9.12;30.69
10706;BME280;5404;42.656;23.336;2023-03-29T12:24:58;95221.19;;;9.11;31.48
10706;BME280;5404;42.656;23.336;2023-03-29T12:27:28;95225.84;;;9.29;32.00
10706;BME280;5404;42.656;23.336;2023-03-29T12:35:28;95235.13;;;9.71;30.11
10706;BME280;5404;42.656;23.336;2023-03-29T12:40:45;95221.78;;;9.42;30.05
10706;BME280;5404;42.656;23.336;2023-03-29T12:43:14;95227.38;;;9.40;30.11
10706;BME280;5404;42.656;23.336;2023-03-29T12:45:43;95230.31;;;9.73;30.26
10706;BME280;5404;42.656;23.336;2023-03-29T12:48:16;95236.69;;;9.77;29.09
10706;BME280;5404;42.656;23.336;2023-03-29T12:50:52;95230.06;;;9.69;30.18
10706;BME280;5404;42.656;23.336;2023-03-29T12:53:34;95229.16;;;9.84;30.82
10706;BME280;5404;42.656;23.336;2023-03-29T12:56:08;95223.19;;;9.97;31.13
10706;BME280;5404;42.656;23.336;2023-03-29T12:58:51;95221.13;;;10.22;30.14
10706;BME280;5404;42.656;23.336;2023-03-29T13:01:24;95223.72;;;10.27;30.23
10706;BME280;5404;42.656;23.336;2023-03-29T13:03:55;95237.06;;;10.51;30.34
10706;BME280;5404;42.656;23.336;2023-03-29T13:09:00;95227.38;;;10.36;30.28
10706;BME280;5404;42.656;23.336;2023-03-29T13:11:31;95240.31;;;10.19;30.01
10706;BME280;5404;42.656;23.336;2023-03-29T13:13:59;95232.91;;;10.16;30.41
10706;BME280;5404;42.656;23.336;2023-03-29T13:16:32;95228.78;;;10.29;29.90
10706;BME280;5404;42.656;23.336;2023-03-29T13:35:05;95232.09;;;9.82;30.80
10706;BME280;5404;42.656;23.336;2023-03-29T13:40:22;95224.19;;;10.06;30.13
10706;BME280;5404;42.656;23.336;2023-03-29T13:42:59;95227.00;;;10.19;29.67
10706;BME280;5404;42.656;23.336;2023-03-29T13:45:27;95214.53;;;10.15;30.43
10706;BME280;5404;42.656;23.336;2023-03-29T13:50:38;95232.03;;;9.92;30.75
10706;BME280;5404;42.656;23.336;2023-03-29T13:53:11;95236.22;;;9.98;30.20
10706;BME280;5404;42.656;23.336;2023-03-29T13:55:44;95216.31;;;10.24;29.13
10706;BME280;5404;42.656;23.336;2023-03-29T14:00:47;95217.56;;;10.79;29.35
10706;BME280;5404;42.656;23.336;2023-03-29T14:03:15;95209.31;;;9.71;28.67
10706;BME280;5404;42.656;23.336;2023-03-29T14:05:48;95218.88;;;10.06;29.68
10706;BME280;5404;42.656;23.336;2023-03-29T14:08:27;95227.31;;;10.41;29.83
10706;BME280;5404;42.656;23.336;2023-03-29T14:10:54;95207.69;;;10.32;28.55
10706;BME280;5404;42.656;23.336;2023-03-29T14:13:23;95220.31;;;10.22;27.81
10706;BME280;5404;42.656;23.336;2023-03-29T14:18:19;95232.81;;;10.26;28.85
10706;BME280;5404;42.656;23.336;2023-03-29T14:20:46;95228.13;;;10.42;28.90
10706;BME280;5404;42.656;23.336;2023-03-29T14:23:14;95222.34;;;10.35;27.99
10706;BME280;5404;42.656;23.336;2023-03-29T14:25:41;95232.03;;;10.49;27.95
10706;BME280;5404;42.656;23.336;2023-03-29T14:28:26;95202.00;;;10.15;28.37
10706;BME280;5404;42.656;23.336;2023-03-29T14:30:52;95224.88;;;10.21;28.40
10706;BME280;5404;42.656;23.336;2023-03-29T14:35:53;95238.25;;;10.11;29.49
10706;BME280;5404;42.656;23.336;2023-03-29T14:38:19;95240.59;;;10.46;28.76
10706;BME280;5404;42.656;23.336;2023-03-29T14:40:45;95229.69;;;10.67;28.74
10706;BME280;5404;42.656;23.336;2023-03-29T14:43:10;95235.38;;;10.60;28.70
10706;BME280;5404;42.656;23.336;2023-03-29T14:45:39;95236.84;;;10.71;28.64
10706;BME280;5404;42.656;23.336;2023-03-29T14:48:04;95235.66;;;10.58;28.04
10706;BME280;5404;42.656;23.336;2023-03-29T14:50:31;95253.03;;;10.27;28.96
10706;BME280;5404;42.656;23.336;2023-03-29T14:52:56;95243.63;;;10.35;29.25
10706;BME280;5404;42.656;23.336;2023-03-29T14:55:24;95258.59;;;10.31;29.10
10706;BME280;5404;42.656;23.336;2023-03-29T14:57:52;95252.56;;;10.20;29.47